Time;durP1;ratioP1;P1;durP2;ratioP2;P2;SDS_P1;SDS_P2;PMS_P1;PMS_P2;Temp;Humidity;BMP_temperature;BMP_pressure;BME280_temperature;BME280_humidity;BME280_pressure;Samples;Min_cycle;Max_cycle;Signal;HPM_P1;HPM_P2
2023/07/31 00:03:58;;;;;;;1.85;0.60;;;;;;;20.03;55.03;100090.22;10504297;28;20116;-74
2023/07/31 00:09:00;;;;;;;3.25;0.82;;;;;;;19.99;55.22;100098.06;10504284;28;20122;-72
2023/07/31 00:14:01;;;;;;;4.35;0.55;;;;;;;19.81;55.77;100106.47;10507046;28;20115;-74
2023/07/31 00:19:03;;;;;;;2.85;0.40;;;;;;;19.75;56.63;100093.81;10503649;28;20055;-73
2023/07/31 00:24:04;;;;;;;4.28;0.63;;;;;;;19.66;57.11;100106.13;10498358;28;20051;-73
2023/07/31 00:29:06;;;;;;;3.63;1.17;;;;;;;19.55;57.38;100102.34;10504101;28;20117;-74
2023/07/31 00:34:07;;;;;;;2.67;0.60;;;;;;;19.47;57.63;100103.59;10504332;28;20116;-74
2023/07/31 00:39:08;;;;;;;3.38;0.40;;;;;;;19.31;58.25;100096.13;10503517;28;20051;-75
2023/07/31 00:44:10;;;;;;;2.58;0.82;;;;;;;19.32;58.53;100103.25;10503598;28;20045;-74
2023/07/31 00:49:12;;;;;;;3.90;0.60;;;;;;;19.15;59.64;100094.97;10500214;28;20049;-73
2023/07/31 00:54:13;;;;;;;4.28;0.82;;;;;;;18.91;60.55;100083.28;10505550;28;20488;-75
2023/07/31 00:59:15;;;;;;;6.90;0.77;;;;;;;18.83;61.43;100096.16;10502345;28;20128;-75
2023/07/31 01:04:18;;;;;;;3.50;0.73;;;;;;;18.84;61.54;100088.84;10502775;28;20049;-74
2023/07/31 01:09:47;;;;;;;2.15;0.43;;;;;;;18.76;61.95;100087.28;10501334;28;20111;-75
2023/07/31 01:15:01;;;;;;;2.97;0.60;;;;;;;18.82;62.09;100071.91;10517359;28;20119;-74
2023/07/31 01:20:07;;;;;;;3.35;0.60;;;;;;;18.82;62.44;100069.19;10501412;28;20036;-74
2023/07/31 01:25:30;;;;;;;2.97;1.05;;;;;;;18.83;62.42;100068.13;10502478;28;20371;-75
2023/07/31 01:30:35;;;;;;;2.35;0.70;;;;;;;18.93;62.31;100062.88;10498917;28;20281;-73
2023/07/31 01:35:37;;;;;;;3.90;0.95;;;;;;;18.97;62.71;100074.16;10500960;28;20108;-74
2023/07/31 01:40:42;;;;;;;1.45;0.40;;;;;;;18.93;62.85;100060.16;10501063;28;20041;-74
2023/07/31 01:45:43;;;;;;;1.95;0.45;;;;;;;18.90;63.05;100059.81;10516558;28;20071;-74
2023/07/31 01:50:45;;;;;;;4.35;0.68;;;;;;;18.88;63.17;100045.59;10499492;28;20139;-73
2023/07/31 01:55:46;;;;;;;1.70;1.00;;;;;;;18.85;63.11;100038.75;10498242;28;20119;-74
2023/07/31 02:00:47;;;;;;;2.53;0.40;;;;;;;18.89;63.32;100033.66;10499808;28;20052;-74
2023/07/31 02:05:49;;;;;;;1.50;0.40;;;;;;;19.01;63.14;100029.00;10498783;28;20134;-73
2023/07/31 02:10:52;;;;;;;3.08;0.65;;;;;;;19.03;63.07;100016.78;10497666;28;20118;-73
2023/07/31 02:15:53;;;;;;;1.38;0.60;;;;;;;19.11;62.78;100014.78;10495826;28;20094;-73
2023/07/31 02:20:55;;;;;;;6.47;0.60;;;;;;;19.21;62.37;100026.72;10495965;28;20090;-74
2023/07/31 02:25:56;;;;;;;3.92;0.93;;;;;;;19.20;62.45;100018.78;10496804;28;20100;-73
2023/07/31 02:30:57;;;;;;;2.75;0.55;;;;;;;19.24;62.27;100016.41;10499349;28;20082;-74
2023/07/31 02:35:59;;;;;;;2.70;0.60;;;;;;;19.28;62.60;100017.59;10498646;28;20107;-73
2023/07/31 02:41:00;;;;;;;3.63;1.27;;;;;;;19.31;62.31;100014.38;10500243;28;20029;-73
2023/07/31 02:46:02;;;;;;;2.40;0.60;;;;;;;19.30;61.96;100024.44;10493818;28;20064;-74
2023/07/31 02:51:03;;;;;;;3.00;0.60;;;;;;;19.33;61.64;100020.41;10498840;28;20040;-74
2023/07/31 02:56:05;;;;;;;4.00;0.57;;;;;;;19.37;61.59;100018.84;10501039;28;20147;-73
2023/07/31 03:01:06;;;;;;;2.70;0.50;;;;;;;19.41;61.45;100020.88;10498974;28;20249;-74
2023/07/31 03:06:08;;;;;;;4.53;0.57;;;;;;;19.56;60.77;100001.22;10496392;28;20036;-74
2023/07/31 03:11:09;;;;;;;4.30;0.80;;;;;;;19.65;60.26;100014.47;10493341;28;20100;-74
2023/07/31 03:16:11;;;;;;;5.07;0.60;;;;;;;19.54;60.70;100017.00;10503005;28;20214;-73
2023/07/31 03:21:12;;;;;;;4.68;0.47;;;;;;;19.56;60.43;100020.31;10504537;28;20049;-73
2023/07/31 03:26:14;;;;;;;2.33;0.60;;;;;;;19.47;60.60;100010.88;10506482;28;20051;-72
2023/07/31 03:31:15;;;;;;;3.92;0.88;;;;;;;19.56;60.85;100014.84;10505471;28;20052;-74
2023/07/31 03:36:17;;;;;;;7.05;1.13;;;;;;;19.61;60.47;100014.16;10500577;28;20052;-73
2023/07/31 03:41:18;;;;;;;2.38;0.63;;;;;;;19.65;60.02;100012.59;10505524;28;20072;-73
2023/07/31 03:46:20;;;;;;;3.50;0.60;;;;;;;19.71;59.72;100018.97;10504021;28;20218;-73
2023/07/31 03:51:21;;;;;;;5.63;1.00;;;;;;;19.75;59.84;100018.25;10505574;28;20052;-71
2023/07/31 03:56:25;;;;;;;4.82;0.50;;;;;;;19.78;59.74;100023.19;10505281;28;20071;-71
2023/07/31 04:01:26;;;;;;;5.03;0.65;;;;;;;19.86;59.69;100027.44;10499785;28;20147;-71
2023/07/31 04:06:30;;;;;;;8.05;0.80;;;;;;;19.81;59.43;100013.72;10502558;28;20129;-72
2023/07/31 04:11:32;;;;;;;3.13;0.60;;;;;;;19.86;59.27;99997.44;10500552;28;20044;-70
2023/07/31 04:16:33;;;;;;;5.07;0.85;;;;;;;19.92;59.06;99996.44;10503385;28;20040;-70
2023/07/31 04:21:35;;;;;;;2.28;0.55;;;;;;;20.07;58.67;99986.88;10500293;28;20058;-70
2023/07/31 04:26:36;;;;;;;6.85;2.15;;;;;;;20.15;58.54;99987.28;10495525;28;20048;-69
2023/07/31 04:31:38;;;;;;;4.15;0.73;;;;;;;20.16;58.45;99988.09;10502087;28;20082;-70
2023/07/31 04:36:40;;;;;;;3.67;0.50;;;;;;;20.21;58.44;99990.94;10501798;28;20446;-70
2023/07/31 04:41:42;;;;;;;6.15;0.68;;;;;;;20.23;57.92;99988.78;10500918;28;20361;-70
2023/07/31 04:46:43;;;;;;;6.85;1.70;;;;;;;20.23;58.00;99988.78;10498885;28;20381;-70
2023/07/31 04:51:45;;;;;;;4.50;0.80;;;;;;;20.22;57.90;99987.09;10500506;28;20506;-71
2023/07/31 04:56:47;;;;;;;4.05;1.42;;;;;;;20.36;57.61;99993.09;10494766;28;20119;-70
2023/07/31 05:01:48;;;;;;;4.97;0.70;;;;;;;20.35;57.51;99983.22;10501869;28;20114;-72
2023/07/31 05:06:50;;;;;;;3.08;0.80;;;;;;;20.24;57.48;99989.59;10500816;28;20041;-71
2023/07/31 05:11:51;;;;;;;4.72;0.70;;;;;;;20.31;57.55;99985.63;10502071;28;20490;-71
2023/07/31 05:16:53;;;;;;;5.07;0.70;;;;;;;20.43;57.16;99977.34;10500420;28;20100;-73
2023/07/31 05:21:54;;;;;;;2.80;0.70;;;;;;;20.56;56.56;99987.09;10499240;28;20353;-71
2023/07/31 05:26:56;;;;;;;2.20;0.60;;;;;;;20.66;56.51;99987.25;10497533;28;20086;-71
2023/07/31 05:31:57;;;;;;;1.10;0.60;;;;;;;20.66;56.21;99990.00;10499381;28;20071;-71
2023/07/31 05:36:59;;;;;;;3.92;0.70;;;;;;;20.64;56.39;99983.16;10498784;28;20059;-72
2023/07/31 05:42:00;;;;;;;4.38;0.60;;;;;;;20.59;56.58;99984.69;10498550;28;20099;-73
2023/07/31 05:47:02;;;;;;;6.10;1.08;;;;;;;20.59;56.37;99981.16;10497831;28;20107;-70
2023/07/31 05:52:03;;;;;;;6.45;1.23;;;;;;;20.56;56.65;99981.63;10499891;28;20112;-71
2023/07/31 05:57:05;;;;;;;4.38;0.68;;;;;;;20.51;56.79;99968.72;10500944;28;20044;-69
2023/07/31 06:02:06;;;;;;;5.85;0.90;;;;;;;20.60;56.21;99967.25;10499132;28;20036;-71
2023/07/31 06:07:08;;;;;;;7.88;0.70;;;;;;;20.59;56.00;99959.28;10480377;28;20059;-71
2023/07/31 06:12:10;;;;;;;2.75;0.85;;;;;;;20.66;56.33;99954.50;10494658;28;20044;-71
2023/07/31 06:17:11;;;;;;;3.53;0.80;;;;;;;20.76;55.81;99951.06;10499642;28;20044;-70
2023/07/31 06:22:13;;;;;;;2.35;0.50;;;;;;;20.85;56.04;99960.44;10500219;28;20047;-71
2023/07/31 06:27:14;;;;;;;4.63;0.63;;;;;;;20.89;55.61;99953.44;10498955;28;20083;-71
2023/07/31 06:32:16;;;;;;;6.13;0.57;;;;;;;20.92;55.74;99963.03;10498715;28;20049;-72
2023/07/31 06:37:17;;;;;;;5.82;1.30;;;;;;;20.90;55.55;99949.59;10493138;28;20119;-72
2023/07/31 06:42:19;;;;;;;5.70;1.60;;;;;;;20.92;55.15;99966.56;10500533;28;20120;-71
2023/07/31 06:47:20;;;;;;;3.92;1.00;;;;;;;20.98;55.19;99968.28;10498207;28;20372;-71
2023/07/31 06:52:21;;;;;;;3.53;0.90;;;;;;;21.04;55.18;99957.44;10507324;28;20040;-71
2023/07/31 06:57:24;;;;;;;3.40;0.80;;;;;;;21.00;55.18;99943.44;10504425;28;20819;-68
2023/07/31 07:02:25;;;;;;;5.45;0.85;;;;;;;21.17;55.30;99957.84;10499766;28;20289;-70
2023/07/31 07:07:27;;;;;;;7.55;1.15;;;;;;;21.36;54.86;99957.50;10506438;28;20124;-70
2023/07/31 07:12:30;;;;;;;4.75;1.20;;;;;;;21.36;54.57;99949.31;10504429;28;20055;-70
2023/07/31 07:17:31;;;;;;;6.20;0.93;;;;;;;21.42;54.34;99951.00;10503199;28;20052;-70
2023/07/31 07:22:33;;;;;;;3.78;1.10;;;;;;;21.46;54.26;99927.56;10505545;28;20356;-70
2023/07/31 07:27:34;;;;;;;4.05;0.70;;;;;;;21.65;54.11;99919.81;10501013;28;20119;-69
2023/07/31 07:32:36;;;;;;;6.10;0.75;;;;;;;21.70;53.93;99913.53;10504215;28;20136;-70
2023/07/31 07:37:37;;;;;;;3.20;0.70;;;;;;;21.74;53.57;99915.53;10506063;28;20051;-69
2023/07/31 07:42:38;;;;;;;2.70;0.70;;;;;;;21.69;53.84;99915.47;10509990;28;20052;-70
2023/07/31 07:47:40;;;;;;;8.93;0.80;;;;;;;21.77;53.47;99908.69;10505978;28;20059;-69
2023/07/31 07:52:42;;;;;;;3.80;0.77;;;;;;;21.80;53.43;99910.91;10499405;28;20051;-70
2023/07/31 07:57:44;;;;;;;3.22;0.80;;;;;;;21.97;53.22;99914.31;10504032;28;20047;-69
2023/07/31 08:02:46;;;;;;;5.75;0.90;;;;;;;22.11;52.76;99905.66;10502195;28;20060;-69
2023/07/31 08:07:47;;;;;;;5.82;1.35;;;;;;;22.03;53.21;99914.38;10504015;28;20292;-69
2023/07/31 08:12:49;;;;;;;5.20;0.85;;;;;;;22.06;53.42;99895.50;10504647;28;20349;-70
2023/07/31 08:17:50;;;;;;;4.18;0.70;;;;;;;22.25;52.98;99897.84;10500082;28;20064;-71
2023/07/31 08:22:52;;;;;;;3.22;0.75;;;;;;;22.31;52.71;99891.31;10504452;28;20068;-70
2023/07/31 08:27:54;;;;;;;3.08;0.85;;;;;;;22.53;52.58;99889.25;10502432;28;20044;-70
2023/07/31 08:32:56;;;;;;;6.45;1.45;;;;;;;22.56;52.71;99883.22;10503459;28;20090;-69
2023/07/31 08:37:57;;;;;;;3.25;0.55;;;;;;;22.84;52.40;99867.44;10508967;28;20051;-70
2023/07/31 08:43:02;;;;;;;2.90;0.65;;;;;;;22.89;52.30;99875.69;10498042;28;20040;-70
2023/07/31 08:48:04;;;;;;;2.67;0.60;;;;;;;22.93;51.96;99868.56;10501890;28;20062;-70
2023/07/31 08:53:05;;;;;;;5.05;1.15;;;;;;;23.05;51.51;99865.59;10502278;28;20214;-71
2023/07/31 08:58:08;;;;;;;4.53;0.90;;;;;;;23.06;51.10;99872.72;10500712;28;20052;-71
2023/07/31 09:03:15;;;;;;;1.67;0.75;;;;;;;23.08;51.30;99878.75;10501195;28;20056;-71
2023/07/31 09:08:21;;;;;;;3.53;0.80;;;;;;;23.20;51.12;99874.94;10495844;28;20490;-71
2023/07/31 09:13:22;;;;;;;3.45;0.60;;;;;;;23.16;51.00;99859.06;10501962;28;20067;-72
2023/07/31 09:18:24;;;;;;;4.32;1.23;;;;;;;23.06;51.11;99864.50;10501247;28;20300;-71
2023/07/31 09:23:25;;;;;;;3.05;0.70;;;;;;;23.02;51.51;99854.31;10500889;28;20119;-69
2023/07/31 09:28:31;;;;;;;5.50;0.82;;;;;;;23.02;51.44;99859.81;10500020;28;20286;-68
2023/07/31 09:33:33;;;;;;;3.42;0.73;;;;;;;22.84;51.78;99848.25;10496859;28;20048;-68
2023/07/31 09:38:34;;;;;;;3.53;0.90;;;;;;;22.57;52.83;99854.75;10500436;28;20112;-70
2023/07/31 09:43:37;;;;;;;4.05;1.38;;;;;;;22.31;53.32;99869.38;10500700;28;20101;-69
2023/07/31 09:48:39;;;;;;;4.25;0.80;;;;;;;22.05;54.68;99858.25;10498597;28;20364;-70
2023/07/31 09:53:40;;;;;;;4.30;0.70;;;;;;;22.08;54.90;99851.44;10501504;28;20360;-69
2023/07/31 09:58:41;;;;;;;5.78;1.00;;;;;;;22.22;54.96;99836.19;10495479;28;20044;-70
2023/07/31 10:03:45;;;;;;;4.45;1.00;;;;;;;22.52;54.01;99841.00;10499030;28;20287;-69
2023/07/31 10:08:48;;;;;;;3.42;0.70;;;;;;;22.70;54.02;99809.56;10497621;28;20044;-68
2023/07/31 10:13:51;;;;;;;3.28;0.70;;;;;;;22.97;53.54;99808.53;10495742;28;20262;-72
2023/07/31 10:18:54;;;;;;;4.60;0.70;;;;;;;23.27;52.39;99802.28;10496851;28;20116;-71
2023/07/31 10:23:56;;;;;;;4.93;0.80;;;;;;;23.65;51.69;99796.50;10502655;28;20048;-69
2023/07/31 10:28:58;;;;;;;3.35;0.88;;;;;;;23.80;50.98;99793.78;10508815;28;20278;-70
2023/07/31 10:34:00;;;;;;;5.78;1.60;;;;;;;23.87;50.30;99788.78;10508328;28;20059;-69
2023/07/31 10:39:04;;;;;;;2.53;0.70;;;;;;;23.81;49.93;99778.13;10507207;28;20052;-68
2023/07/31 10:44:07;;;;;;;1.52;0.65;;;;;;;24.12;49.66;99767.88;10502660;28;20284;-69
2023/07/31 10:49:08;;;;;;;7.60;1.13;;;;;;;24.05;48.96;99781.06;10506980;28;20395;-69
2023/07/31 10:54:11;;;;;;;4.28;0.88;;;;;;;24.06;48.70;99769.00;10513724;28;20068;-69
2023/07/31 10:59:13;;;;;;;2.20;0.60;;;;;;;23.94;48.94;99766.56;10506440;28;20060;-70
2023/07/31 11:04:22;;;;;;;2.03;0.68;;;;;;;23.93;48.66;99760.25;10505310;28;20060;-69
2023/07/31 11:09:27;;;;;;;3.20;0.88;;;;;;;24.19;48.39;99746.44;10502132;28;20049;-69
2023/07/31 11:14:28;;;;;;;2.45;0.45;;;;;;;24.45;47.88;99752.63;10507080;28;20056;-69
2023/07/31 11:19:30;;;;;;;2.70;0.85;;;;;;;24.49;47.47;99744.63;10507392;28;20052;-70
2023/07/31 11:24:31;;;;;;;2.55;1.13;;;;;;;24.58;46.95;99736.63;10506569;28;20056;-70
2023/07/31 11:29:33;;;;;;;5.10;0.80;;;;;;;24.81;46.03;99727.69;10506232;28;20045;-70
2023/07/31 11:34:51;;;;;;;3.05;0.80;;;;;;;25.23;45.54;99731.75;10499156;28;20048;-69
2023/07/31 11:39:59;;;;;;;3.78;1.20;;;;;;;25.06;44.98;99718.41;10505244;28;20082;-70
2023/07/31 11:45:05;;;;;;;2.47;1.00;;;;;;;24.86;45.36;99732.31;10505514;28;20072;-70
2023/07/31 11:50:11;;;;;;;3.22;0.85;;;;;;;24.80;45.19;99719.72;10505059;28;20353;-71
2023/07/31 11:55:14;;;;;;;6.82;0.68;;;;;;;25.03;45.30;99701.66;10509942;28;20267;-70
2023/07/31 12:00:17;;;;;;;3.92;0.63;;;;;;;25.40;44.79;99714.84;10498530;28;20127;-69
2023/07/31 12:05:19;;;;;;;3.30;0.60;;;;;;;25.32;44.20;99712.72;10503368;28;20044;-70
2023/07/31 12:10:28;;;;;;;2.80;0.75;;;;;;;25.22;44.16;99704.56;10502217;28;20274;-71
2023/07/31 12:15:39;;;;;;;3.28;1.00;;;;;;;25.34;44.12;99688.47;10502384;28;20119;-70
2023/07/31 12:20:42;;;;;;;4.13;1.00;;;;;;;25.35;44.30;99697.56;10500539;28;20072;-70
2023/07/31 12:25:44;;;;;;;2.45;0.82;;;;;;;25.40;43.93;99701.06;10500176;28;20197;-71
2023/07/31 12:30:45;;;;;;;2.92;0.80;;;;;;;25.33;43.88;99689.59;10502729;28;20376;-70
2023/07/31 12:35:47;;;;;;;4.55;0.80;;;;;;;25.35;44.07;99684.59;10498937;28;20045;-71
2023/07/31 12:40:48;;;;;;;4.65;0.73;;;;;;;25.43;44.13;99678.47;10502498;28;20056;-70
2023/07/31 12:45:50;;;;;;;6.43;0.80;;;;;;;25.66;43.47;99662.25;10495437;28;20147;-70
2023/07/31 12:50:51;;;;;;;3.25;0.70;;;;;;;25.95;43.00;99647.59;10498826;28;20052;-70
2023/07/31 12:55:53;;;;;;;5.00;1.67;;;;;;;26.05;43.30;99647.50;10508811;28;20098;-70
2023/07/31 13:00:55;;;;;;;3.25;0.70;;;;;;;26.15;42.83;99630.81;10500837;28;20068;-70
2023/07/31 13:05:56;;;;;;;4.25;1.13;;;;;;;26.47;42.16;99623.72;10499809;28;20036;-69
2023/07/31 13:10:58;;;;;;;5.63;1.80;;;;;;;26.37;42.49;99632.16;10494049;28;20048;-70
2023/07/31 13:15:59;;;;;;;4.93;0.82;;;;;;;26.33;42.34;99625.59;10499831;28;20048;-69
2023/07/31 13:21:01;;;;;;;3.50;0.80;;;;;;;26.27;41.67;99625.66;10499959;28;20082;-70
2023/07/31 13:26:02;;;;;;;5.20;1.23;;;;;;;26.30;42.19;99627.00;10500482;28;20115;-70
2023/07/31 13:31:04;;;;;;;4.05;1.00;;;;;;;26.09;42.12;99645.78;10498177;28;20068;-70
2023/07/31 13:36:05;;;;;;;4.15;0.80;;;;;;;25.96;42.51;99621.72;10495127;28;20048;-69
2023/07/31 13:41:07;;;;;;;3.28;0.80;;;;;;;25.99;42.09;99629.38;10499925;28;20103;-71
2023/07/31 13:46:10;;;;;;;5.35;0.75;;;;;;;26.06;42.50;99616.88;10506706;28;20096;-70
2023/07/31 13:51:12;;;;;;;2.65;0.68;;;;;;;26.04;42.60;99610.84;10498452;28;20054;-71
2023/07/31 13:56:14;;;;;;;3.92;0.73;;;;;;;26.03;42.27;99613.91;10480405;28;20044;-70
2023/07/31 14:01:15;;;;;;;2.42;0.50;;;;;;;25.85;43.08;99613.56;10494951;28;20050;-69
2023/07/31 14:06:16;;;;;;;4.10;0.70;;;;;;;25.74;43.14;99612.06;10498583;28;20056;-70
2023/07/31 14:11:18;;;;;;;1.90;0.70;;;;;;;25.65;43.23;99617.41;10498075;28;20053;-69
2023/07/31 14:16:19;;;;;;;1.67;0.82;;;;;;;25.41;44.14;99613.81;10500632;28;20052;-70
2023/07/31 14:21:21;;;;;;;2.28;0.75;;;;;;;25.12;44.05;99607.25;10501047;28;20111;-68
2023/07/31 14:26:22;;;;;;;2.17;0.60;;;;;;;25.27;43.90;99598.00;10496502;28;20048;-69
2023/07/31 14:31:24;;;;;;;0.93;0.50;;;;;;;25.07;45.21;99610.03;10500868;28;20083;-71
2023/07/31 14:36:25;;;;;;;1.20;0.50;;;;;;;25.09;44.65;99590.50;10500504;28;20341;-71
2023/07/31 14:41:26;;;;;;;2.00;0.70;;;;;;;25.22;44.42;99578.03;10500252;28;20052;-70
2023/07/31 14:46:28;;;;;;;3.70;1.02;;;;;;;25.36;44.27;99572.63;10508607;28;20060;-69
2023/07/31 14:51:30;;;;;;;4.82;0.65;;;;;;;25.44;44.09;99586.56;10499902;28;20048;-70
2023/07/31 14:56:31;;;;;;;1.33;0.60;;;;;;;25.48;44.30;99587.59;10480081;28;20063;-70
2023/07/31 15:01:33;;;;;;;3.83;0.95;;;;;;;25.37;44.31;99574.25;10497411;28;20048;-70
2023/07/31 15:06:34;;;;;;;2.53;0.65;;;;;;;25.32;44.73;99577.91;10498284;28;20048;-71
2023/07/31 15:11:36;;;;;;;3.08;0.70;;;;;;;25.13;45.20;99584.09;10504750;28;20052;-71
2023/07/31 15:16:37;;;;;;;2.20;0.60;;;;;;;24.97;44.97;99577.13;10505700;28;20074;-71
2023/07/31 15:21:39;;;;;;;4.30;0.85;;;;;;;24.85;45.78;99595.97;10503400;28;20123;-71
2023/07/31 15:26:42;;;;;;;3.70;0.60;;;;;;;24.73;45.78;99582.59;10506784;28;20116;-71
2023/07/31 15:31:43;;;;;;;4.45;0.88;;;;;;;24.61;45.91;99582.16;10506592;28;20061;-71
2023/07/31 15:36:45;;;;;;;1.25;0.60;;;;;;;24.34;46.28;99584.25;10504726;28;20048;-71
2023/07/31 15:41:46;;;;;;;2.40;0.60;;;;;;;24.29;46.24;99577.97;10504367;28;20041;-71
2023/07/31 15:46:48;;;;;;;2.13;0.50;;;;;;;24.28;45.93;99573.59;10506601;28;20052;-70
2023/07/31 15:51:49;;;;;;;0.95;0.47;;;;;;;24.16;46.51;99576.69;10506663;28;20037;-71
2023/07/31 15:56:51;;;;;;;1.17;0.50;;;;;;;24.01;47.16;99587.78;10505601;28;20102;-71
2023/07/31 16:01:53;;;;;;;1.52;0.30;;;;;;;23.85;47.15;99574.13;10503565;28;20104;-71
2023/07/31 16:06:54;;;;;;;1.35;0.60;;;;;;;23.67;46.81;99583.00;10504519;28;20044;-71
2023/07/31 16:11:56;;;;;;;0.95;0.30;;;;;;;23.55;47.03;99570.41;10499624;28;20063;-72
2023/07/31 16:16:57;;;;;;;0.60;0.20;;;;;;;23.36;47.96;99575.72;10505997;28;20120;-70
2023/07/31 16:21:59;;;;;;;2.13;0.40;;;;;;;23.34;48.69;99579.81;10503550;28;20056;-72
2023/07/31 16:27:00;;;;;;;0.65;0.20;;;;;;;23.28;48.98;99569.97;10502483;28;20123;-70
2023/07/31 16:32:01;;;;;;;0.40;0.20;;;;;;;23.33;49.00;99572.72;10504141;28;20103;-70
2023/07/31 16:37:03;;;;;;;2.05;0.30;;;;;;;23.16;50.04;99570.28;10499604;28;20044;-70
2023/07/31 16:42:05;;;;;;;2.90;0.30;;;;;;;23.31;49.42;99542.00;10502418;28;20112;-71
2023/07/31 16:47:07;;;;;;;0.95;0.30;;;;;;;23.28;49.41;99540.66;10501637;28;20108;-72
2023/07/31 16:52:08;;;;;;;1.13;0.50;;;;;;;23.28;49.40;99542.56;10500324;28;20056;-69
2023/07/31 16:57:10;;;;;;;0.57;0.28;;;;;;;23.37;49.21;99529.91;10502288;28;20055;-70
2023/07/31 17:02:11;;;;;;;4.18;0.47;;;;;;;23.38;49.06;99512.38;10498664;28;20056;-71
2023/07/31 17:07:13;;;;;;;1.05;0.32;;;;;;;23.41;49.01;99528.25;10502272;28;20066;-71
2023/07/31 17:12:14;;;;;;;1.73;0.40;;;;;;;23.47;48.76;99520.81;10508966;28;20051;-71
2023/07/31 17:17:16;;;;;;;0.88;0.30;;;;;;;23.49;48.55;99521.34;10500374;28;20558;-71
2023/07/31 17:22:17;;;;;;;1.58;0.40;;;;;;;23.31;49.49;99522.81;10502135;28;20576;-70
2023/07/31 17:27:19;;;;;;;1.80;0.50;;;;;;;23.22;49.39;99533.53;10496058;28;20044;-71
2023/07/31 17:32:20;;;;;;;1.98;0.38;;;;;;;22.98;50.65;99514.13;10500094;28;20044;-70
2023/07/31 17:37:25;;;;;;;3.25;0.73;;;;;;;22.16;53.36;99512.28;10499123;28;20378;-71
2023/07/31 17:42:26;;;;;;;3.67;0.60;;;;;;;21.62;55.09;99522.88;10501081;28;20044;-71
2023/07/31 17:47:28;;;;;;;2.80;0.60;;;;;;;21.22;56.47;99505.22;10505859;28;20056;-70
2023/07/31 17:52:29;;;;;;;2.70;0.50;;;;;;;20.77;57.61;99505.56;10496303;28;20404;-70
2023/07/31 17:57:30;;;;;;;4.43;0.82;;;;;;;20.53;58.41;99485.13;10499886;28;20100;-71
2023/07/31 18:02:35;;;;;;;3.70;0.65;;;;;;;20.39;58.63;99491.06;10497364;28;20286;-71
2023/07/31 18:07:36;;;;;;;3.30;0.82;;;;;;;20.42;59.02;99473.34;10498728;28;20047;-71
2023/07/31 18:12:38;;;;;;;1.70;0.70;;;;;;;20.59;58.66;99467.72;10497238;28;20055;-71
2023/07/31 18:17:39;;;;;;;3.60;0.70;;;;;;;20.67;58.88;99472.69;10496223;28;20048;-71
2023/07/31 18:22:41;;;;;;;1.95;0.70;;;;;;;20.68;58.90;99466.16;10501667;28;20040;-71
2023/07/31 18:27:43;;;;;;;1.83;0.65;;;;;;;20.75;58.86;99483.13;10499563;28;20111;-71
2023/07/31 18:32:44;;;;;;;2.53;0.90;;;;;;;20.83;59.07;99486.44;10498384;28;20048;-70
2023/07/31 18:37:46;;;;;;;1.77;0.55;;;;;;;20.78;59.60;99490.78;10499713;28;20408;-73
2023/07/31 18:42:47;;;;;;;1.50;1.10;;;;;;;20.87;58.94;99487.56;10496069;28;20045;-71
2023/07/31 18:47:49;;;;;;;3.47;1.15;;;;;;;20.93;59.59;99468.22;10504514;28;20248;-71
2023/07/31 18:52:50;;;;;;;5.55;0.73;;;;;;;21.12;59.09;99454.06;10507261;28;20036;-72
2023/07/31 18:57:54;;;;;;;2.25;0.70;;;;;;;21.18;58.87;99458.44;10506754;28;20067;-71
2023/07/31 19:02:55;;;;;;;2.63;0.77;;;;;;;21.20;59.13;99456.28;10506420;28;20115;-72
2023/07/31 19:08:03;;;;;;;3.88;0.68;;;;;;;21.14;59.61;99449.97;10501551;28;20040;-71
2023/07/31 19:13:05;;;;;;;2.63;0.75;;;;;;;21.07;59.99;99445.84;10505244;28;20060;-68
2023/07/31 19:18:07;;;;;;;2.25;0.77;;;;;;;21.14;59.60;99452.69;10506778;28;20056;-75
2023/07/31 19:23:08;;;;;;;4.40;1.17;;;;;;;21.19;59.83;99450.00;10505848;28;20033;-74
2023/07/31 19:28:10;;;;;;;2.78;1.08;;;;;;;21.19;59.93;99439.06;10506484;28;20055;-74
2023/07/31 19:33:13;;;;;;;9.77;2.45;;;;;;;21.25;59.73;99436.31;10500847;28;20398;-73
2023/07/31 19:38:14;;;;;;;13.50;4.47;;;;;;;21.31;59.27;99440.75;10503041;28;20051;-72
2023/07/31 19:43:16;;;;;;;3.15;1.20;;;;;;;21.37;59.21;99439.66;10507115;28;20040;-76
2023/07/31 19:48:17;;;;;;;2.83;0.98;;;;;;;21.50;59.25;99427.41;10504593;28;20058;-75
2023/07/31 19:53:20;;;;;;;3.78;0.90;;;;;;;21.53;58.84;99422.22;10505706;28;20044;-74
2023/07/31 19:58:21;;;;;;;4.28;0.90;;;;;;;21.33;59.97;99411.22;10498019;28;20053;-74
2023/07/31 20:03:26;;;;;;;2.60;0.90;;;;;;;21.10;60.83;99404.31;10500807;28;20408;-74
2023/07/31 20:08:27;;;;;;;5.15;1.10;;;;;;;20.57;62.26;99396.16;10502956;28;20060;-76
2023/07/31 20:13:30;;;;;;;9.85;2.55;;;;;;;20.20;63.67;99389.69;10501926;28;20036;-75
2023/07/31 20:18:32;;;;;;;5.00;1.30;;;;;;;20.10;65.03;99377.84;10502750;28;20064;-76
2023/07/31 20:23:34;;;;;;;4.35;1.20;;;;;;;20.07;65.16;99381.13;10500698;28;20336;-77
2023/07/31 20:28:43;;;;;;;4.82;0.80;;;;;;;20.08;65.15;99369.13;10500099;28;20071;-76
2023/07/31 20:33:45;;;;;;;6.18;1.13;;;;;;;20.15;65.25;99365.06;10503298;28;20115;-77
2023/07/31 20:38:46;;;;;;;4.82;0.93;;;;;;;20.03;65.57;99366.38;10502955;28;20048;-76
2023/07/31 20:43:48;;;;;;;3.45;1.05;;;;;;;19.75;65.84;99362.91;10502570;28;20128;-75
2023/07/31 20:48:49;;;;;;;4.45;1.02;;;;;;;19.59;66.77;99365.47;10501563;28;20044;-76
2023/07/31 20:53:51;;;;;;;5.72;2.03;;;;;;;19.15;68.19;99357.41;10502163;28;20248;-76
2023/07/31 20:58:53;;;;;;;3.70;1.27;;;;;;;18.87;69.57;99355.75;10502779;28;20055;-76
2023/07/31 21:03:54;;;;;;;4.38;1.05;;;;;;;18.65;70.32;99354.94;10498637;28;20037;-75
2023/07/31 21:08:57;;;;;;;4.53;1.52;;;;;;;18.41;71.46;99361.44;10501527;28;20044;-74
2023/07/31 21:13:59;;;;;;;5.40;1.52;;;;;;;18.32;71.89;99349.31;10499692;28;20302;-74
2023/07/31 21:19:00;;;;;;;6.10;1.58;;;;;;;18.34;72.04;99330.84;10500048;28;20056;-74
2023/07/31 21:24:02;;;;;;;7.53;2.53;;;;;;;18.21;72.73;99321.16;10501798;28;20058;-74
2023/07/31 21:29:03;;;;;;;6.18;1.67;;;;;;;18.25;72.85;99307.91;10501193;28;20237;-74
2023/07/31 21:34:05;;;;;;;5.78;1.63;;;;;;;18.23;73.36;99297.25;10501015;28;20056;-74
2023/07/31 21:39:06;;;;;;;7.13;1.85;;;;;;;18.16;74.02;99290.34;10496592;28;20119;-75
2023/07/31 21:44:08;;;;;;;10.15;2.42;;;;;;;18.07;74.78;99280.97;10502724;28;20422;-75
2023/07/31 21:49:09;;;;;;;9.43;2.97;;;;;;;18.00;75.43;99271.09;10500198;28;20360;-72
2023/07/31 21:54:10;;;;;;;9.55;2.97;;;;;;;18.11;75.44;99260.34;10499025;28;20055;-74
2023/07/31 21:59:12;;;;;;;10.10;2.60;;;;;;;18.05;75.88;99245.91;10498156;28;20041;-74
2023/07/31 22:04:13;;;;;;;7.30;2.05;;;;;;;18.00;76.36;99238.47;10496078;28;20048;-74
2023/07/31 22:09:15;;;;;;;6.43;2.13;;;;;;;18.11;76.17;99233.16;10497487;28;20115;-74
2023/07/31 22:14:16;;;;;;;5.63;1.85;;;;;;;18.01;76.64;99221.09;10497033;28;20127;-74
2023/07/31 22:19:18;;;;;;;10.18;2.38;;;;;;;18.04;76.96;99212.41;10499406;28;20055;-72
2023/07/31 22:24:19;;;;;;;16.42;3.53;;;;;;;18.00;77.25;99205.03;10505821;28;20116;-74
2023/07/31 22:29:22;;;;;;;6.07;2.33;;;;;;;17.93;77.62;99199.78;10503482;28;20097;-74
2023/07/31 22:34:24;;;;;;;9.30;2.55;;;;;;;17.99;77.75;99193.34;10505065;28;20123;-73
2023/07/31 22:39:25;;;;;;;7.80;2.42;;;;;;;17.95;77.93;99186.75;10506709;28;20097;-74
2023/07/31 22:44:27;;;;;;;8.23;2.00;;;;;;;17.96;78.20;99182.94;10507221;28;20100;-73
2023/07/31 22:49:28;;;;;;;6.00;2.38;;;;;;;17.93;78.44;99180.75;10500959;28;20562;-73
2023/07/31 22:54:29;;;;;;;6.60;1.92;;;;;;;17.96;78.32;99174.78;10501001;28;20056;-73
2023/07/31 22:59:31;;;;;;;8.07;2.40;;;;;;;17.96;78.56;99157.66;10503963;28;20107;-74
2023/07/31 23:04:32;;;;;;;5.78;1.85;;;;;;;18.02;78.42;99171.06;10504769;28;20060;-73
2023/07/31 23:09:34;;;;;;;7.38;2.50;;;;;;;18.05;78.31;99148.00;10505356;28;20131;-73
2023/07/31 23:14:35;;;;;;;6.85;1.80;;;;;;;17.97;78.72;99145.69;10513506;28;20067;-73
2023/07/31 23:19:36;;;;;;;6.70;2.47;;;;;;;17.95;78.80;99145.13;10502187;28;20128;-73
2023/07/31 23:24:38;;;;;;;12.93;2.40;;;;;;;17.92;78.91;99151.91;10504450;28;20115;-73